Hawkinge, United Kingdom
Current Conditions -  °F | °C
As of 4:50 PM on Friday 28 Nov 2014 (Local Time) from EGMD Reporting Station
Few Clouds Few Clouds  
Wind Chill: 55°   Ceiling: Unl
Heat Index: 55°   Visibility: 6mi
Dew Point: 54°   Wind: 16mph
Humidity: 94%   Direction: 80°E
Pressure: 29.62"   Gusts: NA
Location:  51.11°N, 1.16°E
Report Text: EGMD 281650Z 08014KT 9999 FEW010 13/12 Q1003
Loading
Personal Weather Stations






























Interactive Weather Map New forecast layout! Learn more

10-Day Weather Forecast

Advertisements
Track Severe Weather on mobile